sensor_id;sensor_type;location;lat;lon;timestamp;temperature;humidity
14154;DHT22;7157;53.144;7.570;2022-09-09T00:08:20;15.93;90.06
14154;DHT22;7157;53.144;7.570;2022-09-09T00:18:28;15.82;90.42
14154;DHT22;7157;53.144;7.570;2022-09-09T00:28:39;15.72;90.89
14154;DHT22;7157;53.144;7.570;2022-09-09T00:38:48;15.70;91.08
14154;DHT22;7157;53.144;7.570;2022-09-09T00:48:59;15.81;90.93
14154;DHT22;7157;53.144;7.570;2022-09-09T00:59:12;15.71;90.78
14154;DHT22;7157;53.144;7.570;2022-09-09T01:09:23;15.69;90.46
14154;DHT22;7157;53.144;7.570;2022-09-09T01:19:39;15.60;90.28
14154;DHT22;7157;53.144;7.570;2022-09-09T01:29:48;15.61;90.09
14154;DHT22;7157;53.144;7.570;2022-09-09T01:39:51;15.60;90.05
14154;DHT22;7157;53.144;7.570;2022-09-09T01:49:55;15.59;90.09
14154;DHT22;7157;53.144;7.570;2022-09-09T02:00:03;15.43;90.39
14154;DHT22;7157;53.144;7.570;2022-09-09T02:10:12;15.51;90.14
14154;DHT22;7157;53.144;7.570;2022-09-09T02:20:19;15.56;90.13
14154;DHT22;7157;53.144;7.570;2022-09-09T02:30:24;15.56;89.85
14154;DHT22;7157;53.144;7.570;2022-09-09T02:40:27;15.60;89.95
14154;DHT22;7157;53.144;7.570;2022-09-09T02:50:34;15.52;90.36
14154;DHT22;7157;53.144;7.570;2022-09-09T03:00:37;15.47;90.56
14154;DHT22;7157;53.144;7.570;2022-09-09T03:10:42;15.54;90.40
14154;DHT22;7157;53.144;7.570;2022-09-09T03:20:46;15.52;90.26
14154;DHT22;7157;53.144;7.570;2022-09-09T03:30:51;15.47;90.07
14154;DHT22;7157;53.144;7.570;2022-09-09T03:40:55;15.33;90.53
14154;DHT22;7157;53.144;7.570;2022-09-09T03:51:00;15.40;90.07
14154;DHT22;7157;53.144;7.570;2022-09-09T04:01:05;15.36;90.20
14154;DHT22;7157;53.144;7.570;2022-09-09T04:11:11;15.34;90.55
14154;DHT22;7157;53.144;7.570;2022-09-09T04:21:14;15.45;90.51
14154;DHT22;7157;53.144;7.570;2022-09-09T04:31:20;15.40;90.79
14154;DHT22;7157;53.144;7.570;2022-09-09T04:41:25;15.43;91.02
14154;DHT22;7157;53.144;7.570;2022-09-09T04:51:29;15.40;91.30
14154;DHT22;7157;53.144;7.570;2022-09-09T05:01:32;15.60;90.87
14154;DHT22;7157;53.144;7.570;2022-09-09T05:11:36;15.63;90.76
14154;DHT22;7157;53.144;7.570;2022-09-09T05:21:39;15.62;90.60
14154;DHT22;7157;53.144;7.570;2022-09-09T05:31:44;15.56;90.52
14154;DHT22;7157;53.144;7.570;2022-09-09T05:41:47;15.54;90.79
14154;DHT22;7157;53.144;7.570;2022-09-09T05:51:51;15.66;90.63
14154;DHT22;7157;53.144;7.570;2022-09-09T06:01:54;15.54;91.44
14154;DHT22;7157;53.144;7.570;2022-09-09T06:11:58;15.83;90.88
14154;DHT22;7157;53.144;7.570;2022-09-09T06:22:01;16.06;90.51
14154;DHT22;7157;53.144;7.570;2022-09-09T06:32:05;16.17;90.55
14154;DHT22;7157;53.144;7.570;2022-09-09T06:42:10;16.31;90.60
14154;DHT22;7157;53.144;7.570;2022-09-09T06:52:14;16.61;89.97
14154;DHT22;7157;53.144;7.570;2022-09-09T07:02:16;16.55;89.79
14154;DHT22;7157;53.144;7.570;2022-09-09T07:12:21;16.34;90.03
14154;DHT22;7157;53.144;7.570;2022-09-09T07:22:23;16.43;90.07
14154;DHT22;7157;53.144;7.570;2022-09-09T07:32:28;16.94;89.28
14154;DHT22;7157;53.144;7.570;2022-09-09T07:42:31;17.53;88.87
14154;DHT22;7157;53.144;7.570;2022-09-09T07:52:39;17.65;86.57
14154;DHT22;7157;53.144;7.570;2022-09-09T08:02:41;17.90;85.13
14154;DHT22;7157;53.144;7.570;2022-09-09T08:12:46;18.10;84.04
14154;DHT22;7157;53.144;7.570;2022-09-09T08:23:08;19.02;82.71
14154;DHT22;7157;53.144;7.570;2022-09-09T08:33:12;19.05;80.16
14154;DHT22;7157;53.144;7.570;2022-09-09T08:43:16;19.18;79.46
14154;DHT22;7157;53.144;7.570;2022-09-09T08:53:25;19.84;77.89
14154;DHT22;7157;53.144;7.570;2022-09-09T09:03:38;20.27;73.47
14154;DHT22;7157;53.144;7.570;2022-09-09T09:13:48;20.55;73.17
14154;DHT22;7157;53.144;7.570;2022-09-09T09:23:55;20.62;72.17
14154;DHT22;7157;53.144;7.570;2022-09-09T09:34:00;20.32;72.80
14154;DHT22;7157;53.144;7.570;2022-09-09T09:44:04;20.28;72.97
14154;DHT22;7157;53.144;7.570;2022-09-09T09:54:15;21.20;70.80
14154;DHT22;7157;53.144;7.570;2022-09-09T10:04:21;21.77;69.31
14154;DHT22;7157;53.144;7.570;2022-09-09T10:14:30;21.32;69.10
14154;DHT22;7157;53.144;7.570;2022-09-09T10:24:57;20.86;71.16
14154;DHT22;7157;53.144;7.570;2022-09-09T10:35:09;20.12;72.58
14154;DHT22;7157;53.144;7.570;2022-09-09T10:45:18;20.17;73.12
14154;DHT22;7157;53.144;7.570;2022-09-09T10:55:24;20.83;71.80
14154;DHT22;7157;53.144;7.570;2022-09-09T11:05:36;22.21;66.25
14154;DHT22;7157;53.144;7.570;2022-09-09T11:15:46;22.61;62.80
14154;DHT22;7157;53.144;7.570;2022-09-09T11:25:55;21.53;64.00
14154;DHT22;7157;53.144;7.570;2022-09-09T11:36:19;21.13;65.41
14154;DHT22;7157;53.144;7.570;2022-09-09T11:46:33;22.46;70.81
14154;DHT22;7157;53.144;7.570;2022-09-09T11:56:44;30.36;49.95
14154;DHT22;7157;53.144;7.570;2022-09-09T12:06:50;32.72;34.21
14154;DHT22;7157;53.144;7.570;2022-09-09T12:16:56;31.88;42.35
14154;DHT22;7157;53.144;7.570;2022-09-09T12:27:02;31.16;37.34
14154;DHT22;7157;53.144;7.570;2022-09-09T12:37:18;23.91;54.21
14154;DHT22;7157;53.144;7.570;2022-09-09T12:47:30;21.91;66.40
14154;DHT22;7157;53.144;7.570;2022-09-09T12:57:39;25.03;54.79
14154;DHT22;7157;53.144;7.570;2022-09-09T13:07:41;22.98;61.43
14154;DHT22;7157;53.144;7.570;2022-09-09T13:17:51;23.83;58.84
14154;DHT22;7157;53.144;7.570;2022-09-09T13:27:58;24.16;58.56
14154;DHT22;7157;53.144;7.570;2022-09-09T13:38:09;22.85;60.62
14154;DHT22;7157;53.144;7.570;2022-09-09T13:48:18;22.85;61.83
14154;DHT22;7157;53.144;7.570;2022-09-09T13:58:23;22.55;61.31
14154;DHT22;7157;53.144;7.570;2022-09-09T14:08:26;22.92;61.22
14154;DHT22;7157;53.144;7.570;2022-09-09T14:18:35;22.67;58.72
14154;DHT22;7157;53.144;7.570;2022-09-09T14:28:39;22.25;59.84
14154;DHT22;7157;53.144;7.570;2022-09-09T14:38:57;20.14;71.63
14154;DHT22;7157;53.144;7.570;2022-09-09T14:49:00;19.75;73.73
14154;DHT22;7157;53.144;7.570;2022-09-09T14:59:04;20.56;73.63
14154;DHT22;7157;53.144;7.570;2022-09-09T15:09:07;21.72;73.03
14154;DHT22;7157;53.144;7.570;2022-09-09T15:19:11;22.12;70.93
14154;DHT22;7157;53.144;7.570;2022-09-09T15:29:13;22.24;69.04
14154;DHT22;7157;53.144;7.570;2022-09-09T15:39:18;21.85;67.98
14154;DHT22;7157;53.144;7.570;2022-09-09T15:49:22;21.29;68.44
14154;DHT22;7157;53.144;7.570;2022-09-09T15:59:29;19.12;79.19
14154;DHT22;7157;53.144;7.570;2022-09-09T16:09:33;18.82;81.31
14154;DHT22;7157;53.144;7.570;2022-09-09T16:19:38;18.79;81.13
14154;DHT22;7157;53.144;7.570;2022-09-09T16:29:41;19.39;82.04
14154;DHT22;7157;53.144;7.570;2022-09-09T16:39:45;19.35;78.62
14154;DHT22;7157;53.144;7.570;2022-09-09T16:49:47;19.44;77.63
14154;DHT22;7157;53.144;7.570;2022-09-09T16:59:52;19.54;77.68
14154;DHT22;7157;53.144;7.570;2022-09-09T17:09:55;19.67;77.17
14154;DHT22;7157;53.144;7.570;2022-09-09T17:19:59;19.68;75.67
14154;DHT22;7157;53.144;7.570;2022-09-09T17:30:04;19.54;77.31
14154;DHT22;7157;53.144;7.570;2022-09-09T17:40:09;19.38;78.59
14154;DHT22;7157;53.144;7.570;2022-09-09T17:50:11;19.22;80.04
14154;DHT22;7157;53.144;7.570;2022-09-09T18:00:16;18.95;80.33
14154;DHT22;7157;53.144;7.570;2022-09-09T18:10:20;18.78;79.60
14154;DHT22;7157;53.144;7.570;2022-09-09T18:20:24;18.61;80.11
14154;DHT22;7157;53.144;7.570;2022-09-09T18:30:27;18.49;80.03
14154;DHT22;7157;53.144;7.570;2022-09-09T18:40:33;18.26;80.59
14154;DHT22;7157;53.144;7.570;2022-09-09T18:50:35;18.15;80.92
14154;DHT22;7157;53.144;7.570;2022-09-09T19:00:39;18.20;81.47
14154;DHT22;7157;53.144;7.570;2022-09-09T19:10:42;18.12;82.13
14154;DHT22;7157;53.144;7.570;2022-09-09T19:20:47;18.09;82.57
14154;DHT22;7157;53.144;7.570;2022-09-09T19:30:49;18.03;83.04
14154;DHT22;7157;53.144;7.570;2022-09-09T19:40:53;17.90;83.55
14154;DHT22;7157;53.144;7.570;2022-09-09T19:51:00;17.83;83.90
14154;DHT22;7157;53.144;7.570;2022-09-09T20:01:07;17.84;83.99
14154;DHT22;7157;53.144;7.570;2022-09-09T20:11:11;17.88;84.01
14154;DHT22;7157;53.144;7.570;2022-09-09T20:21:17;17.78;84.34
14154;DHT22;7157;53.144;7.570;2022-09-09T20:31:22;17.76;84.19
14154;DHT22;7157;53.144;7.570;2022-09-09T20:41:28;17.69;84.39
14154;DHT22;7157;53.144;7.570;2022-09-09T20:51:33;17.56;84.96
14154;DHT22;7157;53.144;7.570;2022-09-09T21:01:37;17.50;85.02
14154;DHT22;7157;53.144;7.570;2022-09-09T21:11:40;17.40;85.43
14154;DHT22;7157;53.144;7.570;2022-09-09T21:21:44;17.30;85.67
14154;DHT22;7157;53.144;7.570;2022-09-09T21:31:48;17.16;86.04
14154;DHT22;7157;53.144;7.570;2022-09-09T21:41:52;17.06;85.89
14154;DHT22;7157;53.144;7.570;2022-09-09T21:51:55;17.01;86.13
14154;DHT22;7157;53.144;7.570;2022-09-09T22:02:00;16.98;85.98
14154;DHT22;7157;53.144;7.570;2022-09-09T22:12:03;16.99;86.09
14154;DHT22;7157;53.144;7.570;2022-09-09T22:22:07;17.02;85.99
14154;DHT22;7157;53.144;7.570;2022-09-09T22:32:10;17.03;86.11
14154;DHT22;7157;53.144;7.570;2022-09-09T22:42:14;16.96;85.66
14154;DHT22;7157;53.144;7.570;2022-09-09T22:52:16;16.77;85.78
14154;DHT22;7157;53.144;7.570;2022-09-09T23:02:21;16.73;85.56
14154;DHT22;7157;53.144;7.570;2022-09-09T23:12:23;16.58;85.94
14154;DHT22;7157;53.144;7.570;2022-09-09T23:22:27;16.52;86.08
14154;DHT22;7157;53.144;7.570;2022-09-09T23:32:31;16.42;86.33
14154;DHT22;7157;53.144;7.570;2022-09-09T23:42:35;16.40;86.60
14154;DHT22;7157;53.144;7.570;2022-09-09T23:52:38;16.47;86.30
